AirNav   ATP
 
 841 users online  

5I2 Flora Municipal Airport
Flora, Indiana, USA

GOING TO FLORA?


FAA INFORMATION EFFECTIVE 01 FEBRUARY 2018

Location

FAA Identifier: 5I2
Lat/Long: 40-32-23.1300N / 086-32-53.9990W
40-32.385500N / 086-32.899983W
40.5397583 / -86.5483331
(estimated)
Elevation: 710 ft. / 216 m (estimated)
Variation: 02W (1985)
From city: 2 miles SW of FLORA, IN
Time zone: UTC -5 (UTC -4 during Daylight Saving Time)
Zip code: 46929

Airport Operations

Airport use: Open to the public
Activation date: 02/1967
Control tower: no
ARTCC: CHICAGO CENTER
FSS: TERRE HAUTE FLIGHT SERVICE STATION
NOTAMs facility: HUF (NOTAM-D service available)
Attendance: UNATNDD
Wind indicator: lighted
Segmented circle: no
Lights: SS-SR

Airport Communications

CTAF: 122.9
WX AWOS-3P at GGP (13 nm NE): 118.5 (574-737-7310)
WX AWOS-3P at MCX (14 nm NW): 124.05 (574-583-0531)
WX AWOS-3 at FKR (16 nm S): 124.325 (765-654-0328)
WX ASOS at LAF (19 nm SW): PHONE 765-743-9687

Nearby radio navigation aids

VOR radial/distance  VOR name  Freq  Var
GUSr253/19.1GRISSOM VORTAC108.4502W
OKKr277/22.4KOKOMO VORTAC113.5005W
BVTr091/23.8BOILER VORTAC115.1001E
MZZr277/39.7MARION VOR/DME108.6003W

 
NDB name  Hdg/Dist  Freq  Var  ID
CRAWFORDSVILLE031/37.538804WCFJ -.-. ..-. .---

Airport Services

Parking: tiedowns
Airframe service: NONE
Powerplant service: NONE
Bottled oxygen: NONE
Bulk oxygen: NONE

Runway Information

Runway 9/27

Dimensions: 2143 x 93 ft. / 653 x 28 m
Surface: turf, in good condition
Runway edge lights: low intensity
RUNWAY 9  RUNWAY 27
Latitude: 40-32.418833N40-32.418833N
Longitude: 086-33.151833W086-32.681167W
Elevation: 710.0 ft.710.0 ft.
Traffic pattern: leftleft
Runway end identifier lights: nono
Obstructions: 15 ft. road, 285 ft. from runway, 20:1 slope to clear10 ft. crops, 200 ft. from runway, 20:1 slope to clear

Airport Ownership and Management from official FAA records

Ownership: Publicly-owned
Owner: TOWN OF FLORA
4 EAST MAIN ST
FLORA, IN 46929
Phone 574-967-4844
Manager: JORETTA TINSMAN
4 EAST MAIN ST
FLORA, IN 46929
Phone (574) 967-4844

Airport Operational Statistics

Aircraft based on the field: 7
Single engine airplanes: 4
Ultralights: 3
    
Aircraft operations: avg 38/week *
75% local general aviation
25% transient general aviation
* for 12-month period ending 31 December 2016

Instrument Procedures

There are no published instrument procedures at 5I2.

Some nearby airports with instrument procedures:

KGGP - Logansport/Cass County Airport (13 nm NE)
KMCX - White County Airport (14 nm NW)
KFKR - Frankfort Municipal Airport (16 nm S)
KGUS - Grissom Air Reserve Base (19 nm E)
KLAF - Purdue University Airport (19 nm SW)
 
Loc | Ops | Rwys | IFR | FBO | Links
Com | Nav | Svcs | Stats | Notes

AirNav Hotels Sweepstakes
 
Area around 5I2 (Flora Municipal Airport)
 
Road maps at: MapQuest Bing Google
 
Aerial photo
WARNING: Photo may not be current or correct
Aerial photo of 5I2 (Flora Municipal Airport)
Do you have a better or more recent aerial photo of Flora Municipal Airport that you would like to share? If so, please send us your photo.

 
Sectional chart

 
Airport distance calculator
Flying to Flora Municipal Airport? Find the distance to fly.

From to 5I2

Sunrise and sunset
Times for 24-Feb-2018
 Local
(UTC-5)
 Zulu
(UTC)
Morning civil twilight07:0112:01
Sunrise07:2812:28
Sunset18:3023:30
Evening civil twilight18:5823:58

Current date and time
Zulu (UTC)  25-Feb-2018 02:32:30
Local (UTC-5)  24-Feb-2018 21:32:30
 
METAR
KGGP 
13nm NE 
250215Z AUTO 11018G23KT 7SM -RA OVC005 07/07 A2970 RMK AO2
KMCX 
14nm NW 
250215Z AUTO 11008KT 10SM -RA OVC006 08/08 A2969 RMK AO2 P0001 T00830076
KFKR 
16nm S 
250215Z AUTO 13023G27KT 5SM RA SCT007 BKN025 OVC090 11/10 A2966 RMK AO2 P0001 T01070100
KGUS 
19nm E 
250156Z 12015G25KT 10SM -RA OVC006 08/08 A2974 RMK AO2A PK WND 11026/16 CIG 005 RWY23 SLP078 P0001 T00830083 RVRNO $
KLAF 
20nm W 
250154Z AUTO 13010KT 10SM -RA OVC007 10/09 A2968 RMK AO2 RAB02 CIG 006V011 SLP051 P0002 T01000094
KOKK 
22nm E 
250156Z AUTO 13016G19KT 7SM -RA OVC004 08/08 A2978 RMK AO2 SLP091 P0003 T00830083
TAF
KGUS 
19nm E 
250119Z 2501/2601 10012KT 9000 -RA OVC006 540203 QNH2975INS BECMG 2501/2502 11015G25KT 9000 -RA OVC006 540203 QNH2974INS BECMG 2504/2505 08015KT 4800 -RA OVC005 540154 QNH2949INS BECMG 2508/2509 25012G20KT 9999 NSW SCT010 BKN020 510203 QNH2949INS BECMG 2512/2513 25020G30KT 9999 FEW025 510003 QNH2954INS TX12/2506Z TN02/2513Z
KLAF 
20nm W 
250215Z 2502/2524 09009KT P6SM -RA OVC007 FM250400 15012KT 6SM SHRA VCTS OVC008CB WS020/17040KT FM250600 20014KT P6SM -SHRA OVC008 WS020/22050KT FM251000 26018G26KT P6SM BKN035 FM252200 25012KT P6SM SKC AMD LTD TO CLD VIS AND WIND TIL 251400
NOTAMs
Click for the latest NOTAMs
NOTAMs are issued by the DoD/FAA and will open in a separate window not controlled by AirNav.

 

 
 

Would you like to see your business listed on this page?

 If your business provides an interesting product or service to pilots, flight crews, aircraft, or users of the Flora Municipal Airport, you should consider listing it here.  To start the listing process, click on the button below
 
Add a business
 

Other Pages about Flora Municipal Airport

Update a link
 
Copyright © AirNav, LLC. All rights reserved. Privacy Policy  Contact